Pink, Oklahoma
Current Conditions -  °F | °C
As of 9:58 AM on Saturday 25 Oct 2014 (Local Time) from KTIK Reporting Station
Clear Clear  
Wind Chill: 64°   Ceiling: Unl
Heat Index: 64°   Visibility: 10mi
Dew Point: 59°   Wind: 8mph
Humidity: 83%   Direction: 180°S
Pressure: 30.09"   Gusts: NA
Location:  35.2189°N, 97.0168°W
Report Text: KTIK 251458Z AUTO 18007KT 10SM CLR 18/15 A3009 RMK AO2 SLP189 53011
Loading
Personal Weather Stations






























Interactive Weather Map
Tropical Storm Tracking
New forecast layout! Learn more

10-Day Weather Forecast

Advertisements
Track Severe Weather on mobile